sensor_id;sensor_type;location;lat;lon;timestamp;P1;durP1;ratioP1;P2;durP2;ratioP2
35418;SDS011;21525;41.240;16.500;2022-12-08T00:00:51;65.10;;;36.45;;
35418;SDS011;21525;41.240;16.500;2022-12-08T00:03:17;47.88;;;28.85;;
35418;SDS011;21525;41.240;16.500;2022-12-08T00:05:43;32.50;;;22.83;;
35418;SDS011;21525;41.240;16.500;2022-12-08T00:08:29;35.35;;;20.73;;
35418;SDS011;21525;41.240;16.500;2022-12-08T00:11:13;30.85;;;19.00;;
35418;SDS011;21525;41.240;16.500;2022-12-08T00:13:40;29.33;;;18.48;;
35418;SDS011;21525;41.240;16.500;2022-12-08T00:16:06;36.85;;;19.70;;
35418;SDS011;21525;41.240;16.500;2022-12-08T00:18:32;26.90;;;17.80;;
35418;SDS011;21525;41.240;16.500;2022-12-08T00:20:58;31.95;;;18.00;;
35418;SDS011;21525;41.240;16.500;2022-12-08T00:23:24;32.83;;;19.50;;
35418;SDS011;21525;41.240;16.500;2022-12-08T00:25:50;35.85;;;19.73;;
35418;SDS011;21525;41.240;16.500;2022-12-08T00:28:16;37.53;;;20.88;;
35418;SDS011;21525;41.240;16.500;2022-12-08T00:30:43;37.65;;;20.77;;
35418;SDS011;21525;41.240;16.500;2022-12-08T00:33:10;36.50;;;21.25;;
35418;SDS011;21525;41.240;16.500;2022-12-08T00:35:36;38.20;;;22.27;;
35418;SDS011;21525;41.240;16.500;2022-12-08T00:38:03;36.97;;;21.08;;
35418;SDS011;21525;41.240;16.500;2022-12-08T00:40:29;36.67;;;20.88;;
35418;SDS011;21525;41.240;16.500;2022-12-08T00:42:54;34.53;;;20.85;;
35418;SDS011;21525;41.240;16.500;2022-12-08T00:45:21;32.63;;;20.35;;
35418;SDS011;21525;41.240;16.500;2022-12-08T00:47:47;32.90;;;20.17;;
35418;SDS011;21525;41.240;16.500;2022-12-08T00:50:12;35.45;;;19.27;;
35418;SDS011;21525;41.240;16.500;2022-12-08T00:52:38;31.65;;;19.23;;
35418;SDS011;21525;41.240;16.500;2022-12-08T00:55:04;30.35;;;18.10;;
35418;SDS011;21525;41.240;16.500;2022-12-08T00:57:30;35.17;;;18.65;;
35418;SDS011;21525;41.240;16.500;2022-12-08T00:59:56;27.63;;;16.90;;
35418;SDS011;21525;41.240;16.500;2022-12-08T01:02:23;34.35;;;17.23;;
35418;SDS011;21525;41.240;16.500;2022-12-08T01:04:49;38.22;;;19.17;;
35418;SDS011;21525;41.240;16.500;2022-12-08T01:07:15;25.80;;;16.60;;
35418;SDS011;21525;41.240;16.500;2022-12-08T01:09:41;25.73;;;15.52;;
35418;SDS011;21525;41.240;16.500;2022-12-08T01:12:07;26.58;;;14.40;;
35418;SDS011;21525;41.240;16.500;2022-12-08T01:14:33;28.88;;;15.48;;
35418;SDS011;21525;41.240;16.500;2022-12-08T01:16:59;27.02;;;13.73;;
35418;SDS011;21525;41.240;16.500;2022-12-08T01:19:24;24.33;;;13.05;;
35418;SDS011;21525;41.240;16.500;2022-12-08T01:21:50;23.77;;;13.88;;
35418;SDS011;21525;41.240;16.500;2022-12-08T01:24:17;22.83;;;13.82;;
35418;SDS011;21525;41.240;16.500;2022-12-08T01:26:44;28.83;;;14.45;;
35418;SDS011;21525;41.240;16.500;2022-12-08T01:29:10;26.10;;;13.55;;
35418;SDS011;21525;41.240;16.500;2022-12-08T01:31:37;26.02;;;12.80;;
35418;SDS011;21525;41.240;16.500;2022-12-08T01:34:03;19.23;;;11.90;;
35418;SDS011;21525;41.240;16.500;2022-12-08T01:36:30;20.95;;;12.25;;
35418;SDS011;21525;41.240;16.500;2022-12-08T01:39:01;24.88;;;12.25;;
35418;SDS011;21525;41.240;16.500;2022-12-08T01:41:32;23.95;;;13.02;;
35418;SDS011;21525;41.240;16.500;2022-12-08T01:44:00;22.42;;;12.98;;
35418;SDS011;21525;41.240;16.500;2022-12-08T01:46:34;21.88;;;11.23;;
35418;SDS011;21525;41.240;16.500;2022-12-08T01:54:06;23.20;;;10.27;;
35418;SDS011;21525;41.240;16.500;2022-12-08T01:56:48;22.25;;;9.70;;
35418;SDS011;21525;41.240;16.500;2022-12-08T01:59:20;20.35;;;11.57;;
35418;SDS011;21525;41.240;16.500;2022-12-08T02:01:49;22.77;;;11.65;;
35418;SDS011;21525;41.240;16.500;2022-12-08T02:04:15;22.50;;;10.73;;
35418;SDS011;21525;41.240;16.500;2022-12-08T02:06:42;24.83;;;12.13;;
35418;SDS011;21525;41.240;16.500;2022-12-08T02:09:11;22.10;;;11.43;;
35418;SDS011;21525;41.240;16.500;2022-12-08T02:11:38;21.95;;;12.77;;
35418;SDS011;21525;41.240;16.500;2022-12-08T02:14:05;23.10;;;12.63;;
35418;SDS011;21525;41.240;16.500;2022-12-08T02:16:55;23.88;;;12.40;;
35418;SDS011;21525;41.240;16.500;2022-12-08T02:22:18;22.95;;;12.63;;
35418;SDS011;21525;41.240;16.500;2022-12-08T02:25:06;24.70;;;13.07;;
35418;SDS011;21525;41.240;16.500;2022-12-08T02:27:48;24.00;;;11.52;;
35418;SDS011;21525;41.240;16.500;2022-12-08T02:33:37;37.78;;;13.48;;
35418;SDS011;21525;41.240;16.500;2022-12-08T02:41:55;27.17;;;12.97;;
35418;SDS011;21525;41.240;16.500;2022-12-08T02:44:35;27.10;;;13.38;;
35418;SDS011;21525;41.240;16.500;2022-12-08T02:47:06;26.52;;;12.68;;
35418;SDS011;21525;41.240;16.500;2022-12-08T02:49:36;25.73;;;12.20;;
35418;SDS011;21525;41.240;16.500;2022-12-08T02:52:03;28.15;;;13.35;;
35418;SDS011;21525;41.240;16.500;2022-12-08T02:54:53;34.08;;;12.40;;
35418;SDS011;21525;41.240;16.500;2022-12-08T02:59:59;30.33;;;12.40;;
35418;SDS011;21525;41.240;16.500;2022-12-08T03:05:28;28.38;;;13.73;;
35418;SDS011;21525;41.240;16.500;2022-12-08T03:10:36;26.98;;;12.73;;
35418;SDS011;21525;41.240;16.500;2022-12-08T03:13:13;25.83;;;12.75;;
35418;SDS011;21525;41.240;16.500;2022-12-08T03:15:42;26.25;;;11.93;;
35418;SDS011;21525;41.240;16.500;2022-12-08T03:18:12;25.80;;;11.93;;
35418;SDS011;21525;41.240;16.500;2022-12-08T03:20:40;32.03;;;14.02;;
35418;SDS011;21525;41.240;16.500;2022-12-08T03:23:10;26.58;;;12.15;;
35418;SDS011;21525;41.240;16.500;2022-12-08T03:25:40;20.10;;;11.75;;
35418;SDS011;21525;41.240;16.500;2022-12-08T03:28:12;23.02;;;10.32;;
35418;SDS011;21525;41.240;16.500;2022-12-08T03:30:39;27.65;;;10.95;;
35418;SDS011;21525;41.240;16.500;2022-12-08T03:33:27;21.95;;;12.43;;
35418;SDS011;21525;41.240;16.500;2022-12-08T03:35:57;24.38;;;11.10;;
35418;SDS011;21525;41.240;16.500;2022-12-08T03:38:26;22.17;;;11.15;;
35418;SDS011;21525;41.240;16.500;2022-12-08T03:41:02;23.23;;;12.02;;
35418;SDS011;21525;41.240;16.500;2022-12-08T03:43:44;24.48;;;12.77;;
35418;SDS011;21525;41.240;16.500;2022-12-08T03:46:14;37.45;;;14.23;;
35418;SDS011;21525;41.240;16.500;2022-12-08T03:48:41;26.80;;;13.50;;
35418;SDS011;21525;41.240;16.500;2022-12-08T03:51:07;26.05;;;12.77;;
35418;SDS011;21525;41.240;16.500;2022-12-08T03:53:33;26.48;;;15.48;;
35418;SDS011;21525;41.240;16.500;2022-12-08T03:55:58;30.05;;;16.50;;
35418;SDS011;21525;41.240;16.500;2022-12-08T03:58:24;26.83;;;14.90;;
35418;SDS011;21525;41.240;16.500;2022-12-08T04:00:50;23.92;;;12.50;;
35418;SDS011;21525;41.240;16.500;2022-12-08T04:03:16;29.23;;;10.95;;
35418;SDS011;21525;41.240;16.500;2022-12-08T04:05:42;23.42;;;12.18;;
35418;SDS011;21525;41.240;16.500;2022-12-08T04:08:07;27.83;;;12.23;;
35418;SDS011;21525;41.240;16.500;2022-12-08T04:10:33;20.90;;;11.57;;
35418;SDS011;21525;41.240;16.500;2022-12-08T04:12:59;27.92;;;12.00;;
35418;SDS011;21525;41.240;16.500;2022-12-08T04:15:25;26.45;;;12.13;;
35418;SDS011;21525;41.240;16.500;2022-12-08T04:17:50;30.98;;;14.85;;
35418;SDS011;21525;41.240;16.500;2022-12-08T04:20:16;34.65;;;13.85;;
35418;SDS011;21525;41.240;16.500;2022-12-08T04:22:42;32.40;;;15.35;;
35418;SDS011;21525;41.240;16.500;2022-12-08T04:25:08;24.38;;;13.98;;
35418;SDS011;21525;41.240;16.500;2022-12-08T04:27:34;26.38;;;12.25;;
35418;SDS011;21525;41.240;16.500;2022-12-08T04:29:59;27.58;;;12.63;;
35418;SDS011;21525;41.240;16.500;2022-12-08T04:32:25;30.17;;;12.75;;
35418;SDS011;21525;41.240;16.500;2022-12-08T04:34:51;30.30;;;14.52;;
35418;SDS011;21525;41.240;16.500;2022-12-08T04:37:17;28.00;;;14.65;;
35418;SDS011;21525;41.240;16.500;2022-12-08T04:39:42;35.20;;;14.88;;
35418;SDS011;21525;41.240;16.500;2022-12-08T04:42:08;30.25;;;15.75;;
35418;SDS011;21525;41.240;16.500;2022-12-08T04:44:34;34.22;;;17.17;;
35418;SDS011;21525;41.240;16.500;2022-12-08T04:47:00;33.83;;;16.25;;
35418;SDS011;21525;41.240;16.500;2022-12-08T04:49:25;27.85;;;15.93;;
35418;SDS011;21525;41.240;16.500;2022-12-08T04:51:51;37.08;;;15.95;;
35418;SDS011;21525;41.240;16.500;2022-12-08T04:54:17;31.38;;;16.05;;
35418;SDS011;21525;41.240;16.500;2022-12-08T04:56:43;21.55;;;11.55;;
35418;SDS011;21525;41.240;16.500;2022-12-08T04:59:08;21.15;;;9.32;;
35418;SDS011;21525;41.240;16.500;2022-12-08T05:01:34;27.25;;;10.07;;
35418;SDS011;21525;41.240;16.500;2022-12-08T05:04:00;23.95;;;12.32;;
35418;SDS011;21525;41.240;16.500;2022-12-08T05:06:26;22.15;;;6.63;;
35418;SDS011;21525;41.240;16.500;2022-12-08T05:08:51;20.58;;;7.68;;
35418;SDS011;21525;41.240;16.500;2022-12-08T05:11:17;18.00;;;7.70;;
35418;SDS011;21525;41.240;16.500;2022-12-08T05:13:43;26.10;;;10.07;;
35418;SDS011;21525;41.240;16.500;2022-12-08T05:16:10;27.65;;;11.25;;
35418;SDS011;21525;41.240;16.500;2022-12-08T05:18:38;19.30;;;10.00;;
35418;SDS011;21525;41.240;16.500;2022-12-08T05:21:05;24.73;;;9.63;;
35418;SDS011;21525;41.240;16.500;2022-12-08T05:23:31;22.58;;;9.38;;
35418;SDS011;21525;41.240;16.500;2022-12-08T05:25:57;23.35;;;11.15;;
35418;SDS011;21525;41.240;16.500;2022-12-08T05:28:23;30.42;;;11.05;;
35418;SDS011;21525;41.240;16.500;2022-12-08T05:30:49;25.00;;;8.73;;
35418;SDS011;21525;41.240;16.500;2022-12-08T05:33:15;20.25;;;9.00;;
35418;SDS011;21525;41.240;16.500;2022-12-08T05:35:41;21.50;;;8.73;;
35418;SDS011;21525;41.240;16.500;2022-12-08T05:38:07;18.25;;;7.38;;
35418;SDS011;21525;41.240;16.500;2022-12-08T05:40:36;21.00;;;9.13;;
35418;SDS011;21525;41.240;16.500;2022-12-08T05:43:03;27.88;;;12.88;;
35418;SDS011;21525;41.240;16.500;2022-12-08T05:45:29;28.60;;;16.25;;
35418;SDS011;21525;41.240;16.500;2022-12-08T05:47:55;32.17;;;17.42;;
35418;SDS011;21525;41.240;16.500;2022-12-08T05:50:21;36.80;;;20.75;;
35418;SDS011;21525;41.240;16.500;2022-12-08T05:52:46;39.90;;;21.60;;
35418;SDS011;21525;41.240;16.500;2022-12-08T05:55:12;36.17;;;21.77;;
35418;SDS011;21525;41.240;16.500;2022-12-08T05:57:38;36.92;;;20.10;;
35418;SDS011;21525;41.240;16.500;2022-12-08T06:00:04;44.03;;;22.45;;
35418;SDS011;21525;41.240;16.500;2022-12-08T06:02:37;48.90;;;26.77;;
35418;SDS011;21525;41.240;16.500;2022-12-08T06:05:03;60.13;;;35.28;;
35418;SDS011;21525;41.240;16.500;2022-12-08T06:07:29;84.32;;;50.63;;
35418;SDS011;21525;41.240;16.500;2022-12-08T06:09:55;79.05;;;43.60;;
35418;SDS011;21525;41.240;16.500;2022-12-08T06:12:20;57.53;;;31.85;;
35418;SDS011;21525;41.240;16.500;2022-12-08T06:14:46;58.75;;;30.98;;
35418;SDS011;21525;41.240;16.500;2022-12-08T06:17:12;54.85;;;32.13;;
35418;SDS011;21525;41.240;16.500;2022-12-08T06:19:38;54.92;;;31.17;;
35418;SDS011;21525;41.240;16.500;2022-12-08T06:22:04;62.15;;;34.67;;
35418;SDS011;21525;41.240;16.500;2022-12-08T06:24:29;58.70;;;32.75;;
35418;SDS011;21525;41.240;16.500;2022-12-08T06:26:55;58.45;;;31.20;;
35418;SDS011;21525;41.240;16.500;2022-12-08T06:29:21;52.13;;;30.50;;
35418;SDS011;21525;41.240;16.500;2022-12-08T06:31:47;56.08;;;30.70;;
35418;SDS011;21525;41.240;16.500;2022-12-08T06:34:13;55.28;;;31.08;;
35418;SDS011;21525;41.240;16.500;2022-12-08T06:36:38;60.72;;;32.33;;
35418;SDS011;21525;41.240;16.500;2022-12-08T06:39:04;61.22;;;31.73;;
35418;SDS011;21525;41.240;16.500;2022-12-08T06:41:30;58.20;;;33.95;;
35418;SDS011;21525;41.240;16.500;2022-12-08T06:43:56;67.28;;;37.00;;
35418;SDS011;21525;41.240;16.500;2022-12-08T06:46:22;68.07;;;38.67;;
35418;SDS011;21525;41.240;16.500;2022-12-08T06:48:48;68.05;;;38.65;;
35418;SDS011;21525;41.240;16.500;2022-12-08T06:51:18;63.28;;;37.95;;
35418;SDS011;21525;41.240;16.500;2022-12-08T06:53:47;59.83;;;36.08;;
35418;SDS011;21525;41.240;16.500;2022-12-08T06:56:12;65.50;;;38.50;;
35418;SDS011;21525;41.240;16.500;2022-12-08T06:58:40;59.80;;;34.65;;
35418;SDS011;21525;41.240;16.500;2022-12-08T07:01:07;55.33;;;31.98;;
35418;SDS011;21525;41.240;16.500;2022-12-08T07:03:35;57.60;;;32.83;;
35418;SDS011;21525;41.240;16.500;2022-12-08T07:06:01;57.13;;;31.23;;
35418;SDS011;21525;41.240;16.500;2022-12-08T07:08:27;50.13;;;30.70;;
35418;SDS011;21525;41.240;16.500;2022-12-08T07:10:53;55.22;;;31.27;;
35418;SDS011;21525;41.240;16.500;2022-12-08T07:13:19;53.65;;;30.65;;
35418;SDS011;21525;41.240;16.500;2022-12-08T07:15:45;60.33;;;35.63;;
35418;SDS011;21525;41.240;16.500;2022-12-08T07:18:10;53.30;;;32.60;;
35418;SDS011;21525;41.240;16.500;2022-12-08T07:20:36;54.45;;;32.03;;
35418;SDS011;21525;41.240;16.500;2022-12-08T07:23:02;56.75;;;28.92;;
35418;SDS011;21525;41.240;16.500;2022-12-08T07:25:28;55.90;;;28.92;;
35418;SDS011;21525;41.240;16.500;2022-12-08T07:27:54;50.33;;;28.67;;
35418;SDS011;21525;41.240;16.500;2022-12-08T07:30:19;58.70;;;30.23;;
35418;SDS011;21525;41.240;16.500;2022-12-08T07:32:45;45.78;;;26.88;;
35418;SDS011;21525;41.240;16.500;2022-12-08T07:35:11;56.30;;;35.60;;
35418;SDS011;21525;41.240;16.500;2022-12-08T07:37:38;62.15;;;35.63;;
35418;SDS011;21525;41.240;16.500;2022-12-08T07:40:05;57.97;;;32.83;;
35418;SDS011;21525;41.240;16.500;2022-12-08T07:44:58;72.95;;;42.63;;
35418;SDS011;21525;41.240;16.500;2022-12-08T07:47:24;62.60;;;42.40;;
35418;SDS011;21525;41.240;16.500;2022-12-08T07:49:50;73.63;;;41.25;;
35418;SDS011;21525;41.240;16.500;2022-12-08T07:52:16;66.20;;;38.63;;
35418;SDS011;21525;41.240;16.500;2022-12-08T07:54:42;74.47;;;43.35;;
35418;SDS011;21525;41.240;16.500;2022-12-08T07:57:08;85.45;;;45.08;;
35418;SDS011;21525;41.240;16.500;2022-12-08T07:59:34;81.63;;;42.90;;
35418;SDS011;21525;41.240;16.500;2022-12-08T08:02:00;81.75;;;40.72;;
35418;SDS011;21525;41.240;16.500;2022-12-08T08:04:25;72.15;;;40.45;;
35418;SDS011;21525;41.240;16.500;2022-12-08T08:06:51;67.25;;;38.08;;
35418;SDS011;21525;41.240;16.500;2022-12-08T08:09:17;67.43;;;34.00;;
35418;SDS011;21525;41.240;16.500;2022-12-08T08:11:43;53.35;;;31.55;;
35418;SDS011;21525;41.240;16.500;2022-12-08T08:14:08;61.05;;;31.20;;
35418;SDS011;21525;41.240;16.500;2022-12-08T08:16:34;67.32;;;34.78;;
35418;SDS011;21525;41.240;16.500;2022-12-08T08:19:00;62.45;;;34.80;;
35418;SDS011;21525;41.240;16.500;2022-12-08T08:21:25;70.63;;;40.05;;
35418;SDS011;21525;41.240;16.500;2022-12-08T08:23:51;55.90;;;36.38;;
35418;SDS011;21525;41.240;16.500;2022-12-08T08:26:17;62.35;;;32.67;;
35418;SDS011;21525;41.240;16.500;2022-12-08T08:28:43;51.58;;;27.70;;
35418;SDS011;21525;41.240;16.500;2022-12-08T08:31:10;52.72;;;28.30;;
35418;SDS011;21525;41.240;16.500;2022-12-08T08:33:36;41.38;;;22.95;;
35418;SDS011;21525;41.240;16.500;2022-12-08T08:36:05;46.38;;;23.58;;
35418;SDS011;21525;41.240;16.500;2022-12-08T08:38:32;71.30;;;32.63;;
35418;SDS011;21525;41.240;16.500;2022-12-08T08:40:58;84.30;;;42.03;;
35418;SDS011;21525;41.240;16.500;2022-12-08T08:43:25;66.80;;;33.25;;
35418;SDS011;21525;41.240;16.500;2022-12-08T08:45:55;58.97;;;29.13;;
35418;SDS011;21525;41.240;16.500;2022-12-08T08:48:21;60.65;;;30.45;;
35418;SDS011;21525;41.240;16.500;2022-12-08T08:50:47;50.60;;;25.15;;
35418;SDS011;21525;41.240;16.500;2022-12-08T08:53:13;41.35;;;24.75;;
35418;SDS011;21525;41.240;16.500;2022-12-08T08:55:39;40.45;;;22.52;;
35418;SDS011;21525;41.240;16.500;2022-12-08T08:58:05;42.70;;;22.75;;
35418;SDS011;21525;41.240;16.500;2022-12-08T09:00:30;42.15;;;22.58;;
35418;SDS011;21525;41.240;16.500;2022-12-08T09:02:56;36.88;;;20.13;;
35418;SDS011;21525;41.240;16.500;2022-12-08T09:05:22;45.90;;;23.30;;
35418;SDS011;21525;41.240;16.500;2022-12-08T09:07:48;45.55;;;26.80;;
35418;SDS011;21525;41.240;16.500;2022-12-08T09:10:13;49.90;;;26.40;;
35418;SDS011;21525;41.240;16.500;2022-12-08T09:12:39;54.13;;;30.63;;
35418;SDS011;21525;41.240;16.500;2022-12-08T09:15:06;51.75;;;30.42;;
35418;SDS011;21525;41.240;16.500;2022-12-08T09:17:33;55.10;;;34.67;;
35418;SDS011;21525;41.240;16.500;2022-12-08T09:19:58;50.88;;;33.10;;
35418;SDS011;21525;41.240;16.500;2022-12-08T09:22:25;52.60;;;34.15;;
35418;SDS011;21525;41.240;16.500;2022-12-08T09:24:51;49.38;;;29.70;;
35418;SDS011;21525;41.240;16.500;2022-12-08T09:27:17;46.78;;;32.47;;
35418;SDS011;21525;41.240;16.500;2022-12-08T09:29:43;52.35;;;29.88;;
35418;SDS011;21525;41.240;16.500;2022-12-08T09:32:09;47.05;;;28.50;;
35418;SDS011;21525;41.240;16.500;2022-12-08T09:34:35;49.25;;;30.80;;
35418;SDS011;21525;41.240;16.500;2022-12-08T09:37:02;44.88;;;28.95;;
35418;SDS011;21525;41.240;16.500;2022-12-08T09:39:28;41.83;;;27.48;;
35418;SDS011;21525;41.240;16.500;2022-12-08T09:42:05;42.28;;;26.55;;
35418;SDS011;21525;41.240;16.500;2022-12-08T09:47:38;40.63;;;23.48;;
35418;SDS011;21525;41.240;16.500;2022-12-08T09:50:18;37.33;;;22.73;;
35418;SDS011;21525;41.240;16.500;2022-12-08T09:53:16;37.63;;;22.13;;
35418;SDS011;21525;41.240;16.500;2022-12-08T09:55:45;35.80;;;21.65;;
35418;SDS011;21525;41.240;16.500;2022-12-08T10:01:08;25.02;;;14.85;;
35418;SDS011;21525;41.240;16.500;2022-12-08T10:03:35;30.73;;;17.50;;
35418;SDS011;21525;41.240;16.500;2022-12-08T10:17:53;33.53;;;17.27;;
35418;SDS011;21525;41.240;16.500;2022-12-08T10:20:21;29.20;;;14.88;;
35418;SDS011;21525;41.240;16.500;2022-12-08T10:22:50;30.30;;;15.30;;
35418;SDS011;21525;41.240;16.500;2022-12-08T10:25:34;33.13;;;15.18;;
35418;SDS011;21525;41.240;16.500;2022-12-08T10:28:03;34.38;;;16.30;;
35418;SDS011;21525;41.240;16.500;2022-12-08T10:30:29;33.75;;;16.83;;
35418;SDS011;21525;41.240;16.500;2022-12-08T10:32:56;28.48;;;15.35;;
35418;SDS011;21525;41.240;16.500;2022-12-08T10:35:22;25.85;;;15.35;;
35418;SDS011;21525;41.240;16.500;2022-12-08T10:37:59;26.75;;;14.07;;
35418;SDS011;21525;41.240;16.500;2022-12-08T10:40:27;25.42;;;14.48;;
35418;SDS011;21525;41.240;16.500;2022-12-08T10:42:59;29.55;;;15.20;;
35418;SDS011;21525;41.240;16.500;2022-12-08T10:45:27;28.15;;;15.05;;
35418;SDS011;21525;41.240;16.500;2022-12-08T10:55:44;24.15;;;12.60;;
35418;SDS011;21525;41.240;16.500;2022-12-08T11:03:43;22.00;;;10.70;;
35418;SDS011;21525;41.240;16.500;2022-12-08T11:06:20;21.63;;;11.65;;
35418;SDS011;21525;41.240;16.500;2022-12-08T11:08:52;24.30;;;11.10;;
35418;SDS011;21525;41.240;16.500;2022-12-08T11:13:48;25.08;;;11.13;;
35418;SDS011;21525;41.240;16.500;2022-12-08T11:16:16;20.02;;;10.07;;
35418;SDS011;21525;41.240;16.500;2022-12-08T11:18:44;22.73;;;10.60;;
35418;SDS011;21525;41.240;16.500;2022-12-08T11:21:19;27.30;;;10.15;;
35418;SDS011;21525;41.240;16.500;2022-12-08T11:23:46;23.88;;;10.07;;
35418;SDS011;21525;41.240;16.500;2022-12-08T11:28:48;23.27;;;11.10;;
35418;SDS011;21525;41.240;16.500;2022-12-08T11:33:51;18.60;;;8.60;;
35418;SDS011;21525;41.240;16.500;2022-12-08T11:36:18;17.08;;;8.75;;
35418;SDS011;21525;41.240;16.500;2022-12-08T11:38:46;16.42;;;8.35;;
35418;SDS011;21525;41.240;16.500;2022-12-08T11:41:20;29.98;;;17.58;;
35418;SDS011;21525;41.240;16.500;2022-12-08T11:44:02;22.33;;;9.00;;
35418;SDS011;21525;41.240;16.500;2022-12-08T11:46:42;21.90;;;8.68;;
35418;SDS011;21525;41.240;16.500;2022-12-08T11:49:15;19.05;;;8.00;;
35418;SDS011;21525;41.240;16.500;2022-12-08T11:52:05;22.75;;;7.93;;
35418;SDS011;21525;41.240;16.500;2022-12-08T11:55:25;19.55;;;7.70;;
35418;SDS011;21525;41.240;16.500;2022-12-08T11:57:41;18.13;;;8.15;;
35418;SDS011;21525;41.240;16.500;2022-12-08T12:00:09;19.25;;;7.45;;
35418;SDS011;21525;41.240;16.500;2022-12-08T12:02:39;17.70;;;8.38;;
35418;SDS011;21525;41.240;16.500;2022-12-08T12:08:03;22.33;;;9.48;;
35418;SDS011;21525;41.240;16.500;2022-12-08T12:22:47;21.98;;;7.18;;
35418;SDS011;21525;41.240;16.500;2022-12-08T12:25:20;22.08;;;8.40;;
35418;SDS011;21525;41.240;16.500;2022-12-08T12:27:48;13.45;;;7.45;;
35418;SDS011;21525;41.240;16.500;2022-12-08T12:30:20;13.82;;;7.22;;
35418;SDS011;21525;41.240;16.500;2022-12-08T12:32:53;17.38;;;6.95;;
35418;SDS011;21525;41.240;16.500;2022-12-08T12:35:32;20.27;;;7.75;;
35418;SDS011;21525;41.240;16.500;2022-12-08T12:38:04;17.13;;;7.40;;
35418;SDS011;21525;41.240;16.500;2022-12-08T12:41:01;18.70;;;8.77;;
35418;SDS011;21525;41.240;16.500;2022-12-08T12:43:31;21.50;;;9.27;;
35418;SDS011;21525;41.240;16.500;2022-12-08T12:48:50;13.38;;;6.03;;
35418;SDS011;21525;41.240;16.500;2022-12-08T12:59:36;18.67;;;6.57;;
35418;SDS011;21525;41.240;16.500;2022-12-08T13:02:18;19.03;;;7.17;;
35418;SDS011;21525;41.240;16.500;2022-12-08T13:04:57;19.02;;;7.60;;
35418;SDS011;21525;41.240;16.500;2022-12-08T13:07:31;17.27;;;6.35;;
35418;SDS011;21525;41.240;16.500;2022-12-08T13:10:06;15.70;;;6.07;;
35418;SDS011;21525;41.240;16.500;2022-12-08T13:12:41;18.17;;;6.78;;
35418;SDS011;21525;41.240;16.500;2022-12-08T13:15:15;21.07;;;6.77;;
35418;SDS011;21525;41.240;16.500;2022-12-08T13:17:44;15.50;;;5.68;;
35418;SDS011;21525;41.240;16.500;2022-12-08T13:20:22;16.00;;;6.10;;
35418;SDS011;21525;41.240;16.500;2022-12-08T13:33:15;17.63;;;8.30;;
35418;SDS011;21525;41.240;16.500;2022-12-08T13:35:47;16.90;;;7.35;;
35418;SDS011;21525;41.240;16.500;2022-12-08T13:38:19;17.00;;;6.75;;
35418;SDS011;21525;41.240;16.500;2022-12-08T13:40:50;19.98;;;7.85;;
35418;SDS011;21525;41.240;16.500;2022-12-08T13:43:21;15.73;;;6.63;;
35418;SDS011;21525;41.240;16.500;2022-12-08T13:45:54;17.92;;;6.90;;
35418;SDS011;21525;41.240;16.500;2022-12-08T13:51:05;20.75;;;7.82;;
35418;SDS011;21525;41.240;16.500;2022-12-08T13:53:40;20.38;;;6.35;;
35418;SDS011;21525;41.240;16.500;2022-12-08T13:56:09;16.70;;;6.05;;
35418;SDS011;21525;41.240;16.500;2022-12-08T13:58:37;13.45;;;6.22;;
35418;SDS011;21525;41.240;16.500;2022-12-08T14:01:20;15.55;;;6.10;;
35418;SDS011;21525;41.240;16.500;2022-12-08T14:03:50;21.33;;;7.53;;
35418;SDS011;21525;41.240;16.500;2022-12-08T14:06:17;16.95;;;7.13;;
35418;SDS011;21525;41.240;16.500;2022-12-08T14:08:53;16.50;;;7.25;;
35418;SDS011;21525;41.240;16.500;2022-12-08T14:14:00;23.55;;;7.50;;
35418;SDS011;21525;41.240;16.500;2022-12-08T14:16:33;19.73;;;6.63;;
35418;SDS011;21525;41.240;16.500;2022-12-08T14:19:03;20.80;;;7.57;;
35418;SDS011;21525;41.240;16.500;2022-12-08T14:21:29;15.80;;;6.87;;
35418;SDS011;21525;41.240;16.500;2022-12-08T14:23:59;23.63;;;6.95;;
35418;SDS011;21525;41.240;16.500;2022-12-08T14:26:29;15.15;;;6.07;;
35418;SDS011;21525;41.240;16.500;2022-12-08T14:28:58;20.10;;;5.80;;
35418;SDS011;21525;41.240;16.500;2022-12-08T14:31:24;14.00;;;5.82;;
35418;SDS011;21525;41.240;16.500;2022-12-08T14:33:52;14.60;;;4.82;;
35418;SDS011;21525;41.240;16.500;2022-12-08T14:36:18;15.07;;;5.60;;
35418;SDS011;21525;41.240;16.500;2022-12-08T14:38:45;18.17;;;5.05;;
35418;SDS011;21525;41.240;16.500;2022-12-08T14:41:12;13.30;;;5.53;;
35418;SDS011;21525;41.240;16.500;2022-12-08T14:43:38;18.90;;;5.93;;
35418;SDS011;21525;41.240;16.500;2022-12-08T14:46:18;20.08;;;6.70;;
35418;SDS011;21525;41.240;16.500;2022-12-08T14:48:45;16.77;;;6.15;;
35418;SDS011;21525;41.240;16.500;2022-12-08T14:53:44;17.80;;;6.28;;
35418;SDS011;21525;41.240;16.500;2022-12-08T14:58:46;18.92;;;5.53;;
35418;SDS011;21525;41.240;16.500;2022-12-08T15:01:27;19.33;;;6.43;;
35418;SDS011;21525;41.240;16.500;2022-12-08T15:03:59;19.27;;;7.38;;
35418;SDS011;21525;41.240;16.500;2022-12-08T15:06:26;16.75;;;6.90;;
35418;SDS011;21525;41.240;16.500;2022-12-08T15:08:54;16.88;;;6.88;;
35418;SDS011;21525;41.240;16.500;2022-12-08T15:13:49;14.35;;;5.15;;
35418;SDS011;21525;41.240;16.500;2022-12-08T15:16:26;14.57;;;5.57;;
35418;SDS011;21525;41.240;16.500;2022-12-08T15:21:40;16.13;;;7.45;;
35418;SDS011;21525;41.240;16.500;2022-12-08T15:24:09;18.13;;;6.35;;
35418;SDS011;21525;41.240;16.500;2022-12-08T15:26:47;16.63;;;5.82;;
35418;SDS011;21525;41.240;16.500;2022-12-08T15:29:19;16.70;;;6.00;;
35418;SDS011;21525;41.240;16.500;2022-12-08T15:31:45;14.90;;;6.43;;
35418;SDS011;21525;41.240;16.500;2022-12-08T15:34:11;16.92;;;6.20;;
35418;SDS011;21525;41.240;16.500;2022-12-08T15:36:37;16.13;;;5.97;;
35418;SDS011;21525;41.240;16.500;2022-12-08T15:39:05;17.60;;;5.90;;
35418;SDS011;21525;41.240;16.500;2022-12-08T15:41:35;18.08;;;7.22;;
35418;SDS011;21525;41.240;16.500;2022-12-08T15:44:00;17.10;;;6.75;;
35418;SDS011;21525;41.240;16.500;2022-12-08T15:46:26;18.10;;;7.20;;
35418;SDS011;21525;41.240;16.500;2022-12-08T15:48:52;16.65;;;6.47;;
35418;SDS011;21525;41.240;16.500;2022-12-08T15:51:18;18.35;;;6.05;;
35418;SDS011;21525;41.240;16.500;2022-12-08T15:53:45;15.77;;;6.57;;
35418;SDS011;21525;41.240;16.500;2022-12-08T15:56:10;18.75;;;6.97;;
35418;SDS011;21525;41.240;16.500;2022-12-08T15:58:38;14.70;;;6.90;;
35418;SDS011;21525;41.240;16.500;2022-12-08T16:01:03;16.48;;;6.75;;
35418;SDS011;21525;41.240;16.500;2022-12-08T16:03:29;16.13;;;7.00;;
35418;SDS011;21525;41.240;16.500;2022-12-08T16:05:56;20.30;;;6.07;;
35418;SDS011;21525;41.240;16.500;2022-12-08T16:08:26;21.30;;;6.25;;
35418;SDS011;21525;41.240;16.500;2022-12-08T16:10:55;16.48;;;7.10;;
35418;SDS011;21525;41.240;16.500;2022-12-08T16:13:41;18.58;;;7.68;;
35418;SDS011;21525;41.240;16.500;2022-12-08T16:16:16;18.60;;;7.72;;
35418;SDS011;21525;41.240;16.500;2022-12-08T16:18:46;16.60;;;8.25;;
35418;SDS011;21525;41.240;16.500;2022-12-08T16:21:13;18.08;;;7.78;;